Sunday, July 22, 2018, 11:58 PM GMT
Back to Local

CYYB, North Bay, Ont.

Location: , , Canada Lat: 46.35
Local Time: 11:58 PM GMT (23:58 GMT) Lon: -79.433
Time Zone: GMT Elev: 1174 ft

Show me the last for .
Show Coded

Time T Td Feel RH Dir Speed Gust Alt SLP Vis Weather Sky Remarks
2018-07-22 23:40 64 64 - 100 100° 8 17 29.97 29.98 20 BKN006 OVC016 None
2018-07-22 23:00 64 64 - 100 90° 12 17 29.96 29.97 5 -SHRA BR SCT008 OVC013 None
2018-07-22 22:32 66 64 - 93 90° 14 21 29.96 29.96 4 -SHRA BR SCT008 OVC013 None
2018-07-22 22:00 66 64 - 93 80° 13 18 29.95 29.95 20 -SHRA BKN013 OVC022 None
2018-07-22 21:44 66 64 - 93 90° 7 20 29.95 29.95 20 -SHRA BKN013 OVC022 None
2018-07-22 21:00 68 64 - 88 70° 14 25 29.95 29.95 5 -SHRA BR BKN017 OVC022 None
2018-07-22 20:00 72 63 76 73 80° 17 24 29.93 29.93 20 -SHRA SCT029 BKN049 None
2018-07-22 19:46 72 63 76 73 60° 13 22 29.93 29.93 20 -SHRA SCT029 OVC046 None
2018-07-22 19:00 68 61 - 77 60° 9 - 29.93 29.93 15 BKN055 BKN076 None
2018-07-22 18:00 68 59 - 72 90° 8 21 29.95 29.95 8 -SHRA BKN050 OVC093 None
2018-07-22 17:00 73 48 76 40 70° 17 - 29.94 29.94 20 -SHRA BKN055 OVC120 None
2018-07-22 16:24 75 50 77 41 70° 15 25 29.94 29.93 20 -SHRA BKN140 None
2018-07-22 16:00 75 50 77 41 70° 18 30 29.94 29.93 30 BKN140 None
2018-07-22 15:00 73 57 77 56 80° 9 18 29.95 29.94 30 BKN150 None
2018-07-22 14:00 72 57 76 60 60° 13 21 29.96 29.95 30 BKN150 OVC180 None
2018-07-22 13:00 70 57 - 64 60° 12 - 29.96 29.96 20 BKN160 OVC210 None
2018-07-22 12:00 68 55 - 64 50° 9 - 29.97 29.97 20 BKN160 OVC210 None
2018-07-22 11:00 68 55 - 64 50° 8 - 29.97 29.97 20 BKN160 OVC200 None
2018-07-22 10:00 68 54 - 60 60° 8 - 29.98 29.97 9 FEW120 BKN150 OVC180 None
2018-07-22 09:00 70 54 - 56 50° 6 - 29.97 29.97 9 SCT100 SCT140 BKN170 OVC240 None
2018-07-22 08:00 70 52 - 52 70° 7 - 29.98 29.97 9 BKN100 OVC130 None
2018-07-22 07:38 70 52 - 52 80° 6 - 29.98 29.98 9 BKN100 OVC120 None
2018-07-22 07:24 70 52 - 52 80° 6 - 29.99 29.98 9 -RA BKN110 OVC130 None
2018-07-22 07:00 70 50 - 49 50° 7 - 29.99 29.98 9 SCT090 BKN110 OVC130 None
2018-07-22 06:00 72 46 75 40 40° 6 - 30.00 29.99 9 BKN120 OVC140 None
2018-07-22 05:45 70 48 - 46 40° 7 - 30.00 29.99 9 SCT100 OVC120 None
2018-07-22 05:32 72 48 76 43 50° 8 - 30.00 29.99 9 -RA BKN100 OVC130 None
2018-07-22 05:00 70 48 - 46 50° 7 - 30.00 29.99 9 FEW110 OVC130 None
2018-07-22 04:47 72 48 76 43 60° 7 - 30.01 30.00 9 -RA OVC130 None
2018-07-22 04:00 72 46 75 40 70° 5 - 30.01 30.00 9 BKN130 OVC150 None
2018-07-22 03:00 73 45 - 35 70° 8 - 30.01 30.01 9 BKN160 OVC180 None
2018-07-22 02:00 72 48 76 43 80° 8 - 30.01 30.00 15 SCT160 BKN260 None
2018-07-22 01:00 75 48 - 38 70° 6 - 29.99 29.99 30 FEW150 BKN260 None
2018-07-22 00:00 79 52 - 39 150° 10 17 29.97 29.97 30 SCT150 BKN260 None

Support USWX by starting your Amazon purchase here.